Santa Elena, Venezuela
Current Conditions -  °F | °C
As of 12:00 PM on Tuesday 21 Oct 2014 (Local Time) from SBBV Reporting Station
Broken Clouds Broken Clouds  
Wind Chill: 88°   Ceiling: 10000
Heat Index: 89°   Visibility: 6mi
Dew Point: 64°   Wind: 8mph
Humidity: 46%   Direction: 80°E
Pressure: 29.85"   Gusts: NA
Location:  4.68°N, 61.18°W
Report Text: SBBV 211600Z 08007KT 010V140 9999 SCT035 BKN100 31/18 Q1011
Loading
Personal Weather Stations






























Interactive Weather Map
Tropical Storm Tracking
New forecast layout! Learn more

10-Day Weather Forecast

Advertisements
Track Severe Weather on mobile